Waltham, United Kingdom
Current Conditions -  °F | °C
As of 5:50 AM on Friday 28 Nov 2014 (Local Time) from EGXS Reporting Station
Broken Clouds Broken Clouds  
Wind Chill: 50°   Ceiling: 300
Heat Index: 50°   Visibility: 1.9mi
Dew Point: 50°   Wind: 14mph
Humidity: 100%   Direction: 80°E
Pressure: 29.65"   Gusts: NA
Location:  53.52°N, 0.1°W
Report Text: EGXS 280550Z AUTO 08012KT 3100 // BKN003/// 10/10 Q1004
Loading
Personal Weather Stations






























Interactive Weather Map New forecast layout! Learn more

10-Day Weather Forecast

Advertisements
Track Severe Weather on mobile